Time;durP1;ratioP1;P1;durP2;ratioP2;P2;SDS_P1;SDS_P2;PMS_P1;PMS_P2;Temp;Humidity;BMP_temperature;BMP_pressure;BME280_temperature;BME280_humidity;BME280_pressure;Samples;Min_cycle;Max_cycle;Signal;HPM_P1;HPM_P2
2021/06/07 04:55:12;;;;;;;9.70;8.70;;;;;;;19.92;100.00;99810.02;1835578;77;22016;-71
2021/06/07 04:57:39;;;;;;;8.00;7.20;;;;;;;19.86;100.00;99805.82;1817628;78;21690;-69
2021/06/07 05:00:08;;;;;;;8.45;7.65;;;;;;;19.88;100.00;99813.11;1815317;78;21130;-70
2021/06/07 05:02:35;;;;;;;9.15;7.50;;;;;;;19.93;100.00;99809.52;1798241;78;20902;-72
2021/06/07 05:05:02;;;;;;;8.98;8.10;;;;;;;20.01;100.00;99809.57;1797474;79;20938;-71
2021/06/07 05:07:30;;;;;;;8.58;6.25;;;;;;;20.07;100.00;99814.25;1808930;78;20962;-72
2021/06/07 05:09:58;;;;;;;7.12;6.45;;;;;;;20.12;100.00;99817.27;1808724;77;20918;-73
2021/06/07 05:12:27;;;;;;;8.18;7.47;;;;;;;20.19;100.00;99821.47;1831186;77;21138;-68
2021/06/07 05:14:54;;;;;;;7.40;6.70;;;;;;;20.21;100.00;99812.89;1827751;78;20937;-69
2021/06/07 05:17:23;;;;;;;8.58;7.40;;;;;;;20.24;100.00;99809.95;1792134;78;22306;-71
2021/06/07 05:19:50;;;;;;;7.78;6.62;;;;;;;20.27;100.00;99811.79;1833884;77;20894;-72
2021/06/07 05:22:17;;;;;;;6.65;6.15;;;;;;;20.27;100.00;99808.31;1821773;77;21032;-67
2021/06/07 05:24:44;;;;;;;11.78;7.62;;;;;;;20.26;93.46;99811.94;1817948;77;22130;-69
2021/06/07 05:27:12;;;;;;;8.48;7.60;;;;;;;20.32;87.23;99817.94;1801206;78;20925;-71
2021/06/07 05:29:39;;;;;;;10.30;6.92;;;;;;;20.32;87.23;99817.94;1812709;77;21609;-69
2021/06/07 05:32:07;;;;;;;7.15;6.58;;;;;;;20.35;85.88;99816.31;1815044;77;20984;-70
2021/06/07 05:34:34;;;;;;;8.03;7.22;;;;;;;20.39;84.54;99812.91;1809229;78;20988;-71
2021/06/07 05:37:01;;;;;;;7.25;6.50;;;;;;;20.46;83.54;99821.36;1816874;77;21385;-70
2021/06/07 05:39:28;;;;;;;6.78;6.25;;;;;;;20.55;83.19;99815.16;1829740;77;20926;-69
2021/06/07 05:41:57;;;;;;;8.95;6.50;;;;;;;20.67;81.67;99821.52;1810028;77;20954;-73
2021/06/07 05:44:24;;;;;;;8.03;6.90;;;;;;;20.78;80.99;99816.80;1819835;77;20934;-70
2021/06/07 05:46:52;;;;;;;7.47;6.87;;;;;;;20.91;81.39;99811.05;1820460;78;21385;-68
2021/06/07 05:49:19;;;;;;;6.45;5.95;;;;;;;21.08;80.66;99808.00;1807575;77;21137;-71
2021/06/07 05:51:59;;;;;;;7.33;5.78;;;;;;;21.23;79.36;99805.93;1809395;78;20977;-69
2021/06/07 05:54:28;;;;;;;7.47;5.92;;;;;;;21.44;78.42;99809.98;1815757;78;20970;-72
2021/06/07 05:56:55;;;;;;;6.20;5.60;;;;;;;21.67;76.33;99803.57;1808937;79;21540;-69
2021/06/07 05:59:22;;;;;;;8.18;6.42;;;;;;;21.86;75.17;99808.09;1781126;79;20903;-71
2021/06/07 06:02:07;;;;;;;6.03;5.42;;;;;;;22.09;75.12;99804.80;1793032;79;21010;-69
2021/06/07 06:04:54;;;;;;;6.12;5.47;;;;;;;22.35;74.37;99805.48;1788896;79;20938;-69
2021/06/07 06:07:42;;;;;;;7.05;5.50;;;;;;;22.63;72.93;99808.58;1754421;79;20935;-69
2021/06/07 06:10:15;;;;;;;5.12;4.72;;;;;;;22.82;71.10;99810.04;1796117;79;20978;-70
2021/06/07 06:12:46;;;;;;;5.13;4.70;;;;;;;23.10;69.68;99815.28;1809106;79;20974;-70
2021/06/07 06:15:18;;;;;;;4.00;3.70;;;;;;;23.60;68.17;99807.41;1809204;79;20900;-70
2021/06/07 06:17:46;;;;;;;5.10;4.50;;;;;;;24.28;66.58;99809.28;1809012;79;20907;-71
2021/06/07 06:20:16;;;;;;;3.77;3.55;;;;;;;24.99;64.16;99811.08;1778699;79;20955;-71
2021/06/07 06:22:46;;;;;;;5.22;3.50;;;;;;;25.65;60.03;99807.39;1785008;79;20974;-69
2021/06/07 06:25:15;;;;;;;4.08;3.20;;;;;;;26.06;59.59;99803.59;1792517;79;20911;-68
2021/06/07 06:27:44;;;;;;;3.62;3.33;;;;;;;26.53;57.52;99812.31;1787936;79;21091;-70
2021/06/07 06:30:16;;;;;;;3.85;3.30;;;;;;;26.91;55.84;99815.44;1782098;79;20944;-70
2021/06/07 06:32:45;;;;;;;3.22;3.02;;;;;;;27.42;54.54;99808.91;1779248;79;20969;-71
2021/06/07 06:35:16;;;;;;;3.15;2.95;;;;;;;27.81;54.39;99807.72;1793806;78;21009;-69
2021/06/07 06:37:46;;;;;;;3.08;2.87;;;;;;;28.01;52.20;99806.38;1799426;78;20964;-71
2021/06/07 06:40:24;;;;;;;3.60;2.92;;;;;;;27.91;49.93;99805.98;1797650;78;21083;-69
2021/06/07 06:42:54;;;;;;;3.40;3.10;;;;;;;27.43;49.94;99811.91;1790507;79;21600;-71
2021/06/07 06:45:23;;;;;;;5.58;3.25;;;;;;;26.88;52.74;99813.66;1792592;79;21022;-70
2021/06/07 06:47:57;;;;;;;8.13;6.70;;;;;;;26.47;51.84;99813.09;1786506;79;20992;-69
2021/06/07 06:50:33;;;;;;;13.38;11.18;;;;;;;26.10;52.50;99818.70;1775281;79;21504;-71
2021/06/07 06:52:59;;;;;;;10.45;8.05;;;;;;;25.68;52.24;99813.67;1767320;79;21124;-70
2021/06/07 06:55:28;;;;;;;6.05;5.55;;;;;;;25.30;53.32;99809.52;1776006;79;20950;-69
2021/06/07 06:57:57;;;;;;;7.85;4.03;;;;;;;25.10;54.68;99819.94;1796432;79;21489;-70
2021/06/07 07:00:24;;;;;;;4.35;3.95;;;;;;;25.16;54.63;99809.87;1790413;78;20947;-69
2021/06/07 07:02:57;;;;;;;3.62;3.33;;;;;;;25.14;53.75;99804.73;1773108;78;20998;-69
2021/06/07 07:05:29;;;;;;;4.33;3.72;;;;;;;25.13;55.24;99808.91;1791483;78;21045;-70
2021/06/07 07:07:58;;;;;;;4.62;4.00;;;;;;;25.13;53.58;99812.41;1801737;79;21350;-71
2021/06/07 07:10:28;;;;;;;4.30;3.90;;;;;;;24.97;53.67;99813.92;1792570;79;21330;-72
2021/06/07 07:12:55;;;;;;;4.33;4.00;;;;;;;24.83;54.64;99805.38;1708367;80;21535;-71
2021/06/07 07:15:24;;;;;;;4.40;4.00;;;;;;;24.89;54.97;99804.65;1777218;80;20947;-72
2021/06/07 07:17:52;;;;;;;3.72;3.42;;;;;;;25.07;54.96;99808.32;1760082;79;21608;-71
2021/06/07 07:20:19;;;;;;;3.62;3.40;;;;;;;25.14;53.42;99799.91;1751514;78;21509;-70
2021/06/07 07:22:48;;;;;;;4.40;3.47;;;;;;;25.15;53.93;99801.06;1777326;79;21001;-70
2021/06/07 07:25:17;;;;;;;5.55;3.77;;;;;;;25.29;54.42;99802.53;1806230;79;21586;-70
2021/06/07 07:27:45;;;;;;;4.03;3.72;;;;;;;25.42;53.28;99802.70;1777325;79;20947;-73
2021/06/07 07:30:18;;;;;;;5.97;4.20;;;;;;;25.38;52.76;99802.24;1799828;79;21017;-71
2021/06/07 07:32:48;;;;;;;4.08;3.65;;;;;;;25.26;53.28;99802.39;1792638;79;21555;-71
2021/06/07 07:35:16;;;;;;;4.12;3.50;;;;;;;25.22;53.40;99803.27;1791982;80;20970;-70
2021/06/07 07:37:50;;;;;;;5.45;3.83;;;;;;;25.21;53.43;99804.28;1745004;81;20923;-71
2021/06/07 07:40:20;;;;;;;4.45;4.05;;;;;;;25.14;54.15;99803.40;1724757;82;20907;-71
2021/06/07 07:42:48;;;;;;;3.98;3.67;;;;;;;25.11;54.80;99806.94;1724236;82;21153;-71
2021/06/07 07:45:25;;;;;;;3.55;3.10;;;;;;;25.08;54.27;99811.30;1755757;80;22057;-72
2021/06/07 07:47:53;;;;;;;5.00;3.35;;;;;;;25.03;53.53;99806.52;1724919;82;21060;-72
2021/06/07 07:50:20;;;;;;;3.52;3.22;;;;;;;25.25;53.07;99806.90;1749831;80;21381;-72
2021/06/07 07:52:56;;;;;;;3.20;2.90;;;;;;;25.51;53.01;99805.58;1750952;81;20899;-72
2021/06/07 07:55:28;;;;;;;3.10;2.80;;;;;;;25.85;51.86;99812.44;1749372;80;21117;-72
2021/06/07 07:57:57;;;;;;;3.35;3.05;;;;;;;26.13;51.04;99811.14;1739636;82;21761;-72
2021/06/07 08:00:30;;;;;;;3.30;3.10;;;;;;;26.44;50.19;99810.80;1708825;84;20947;-72
2021/06/07 08:02:59;;;;;;;3.45;3.17;;;;;;;26.64;49.29;99818.15;1742521;81;21047;-72
2021/06/07 08:05:28;;;;;;;5.42;3.35;;;;;;;26.78;48.72;99814.55;1754410;81;20891;-72
2021/06/07 08:07:59;;;;;;;4.15;2.75;;;;;;;26.91;48.63;99820.78;1753672;81;21541;-73
2021/06/07 08:10:29;;;;;;;2.90;2.70;;;;;;;26.99;47.71;99812.33;1727827;80;21707;-74
2021/06/07 08:13:02;;;;;;;4.20;3.00;;;;;;;26.91;47.63;99817.28;1737819;80;21483;-73
2021/06/07 08:15:29;;;;;;;3.22;2.90;;;;;;;26.68;47.48;99815.41;1764160;80;21500;-73
2021/06/07 08:17:58;;;;;;;3.87;2.95;;;;;;;26.34;48.16;99813.52;1758768;80;20982;-73
2021/06/07 08:20:30;;;;;;;4.10;2.75;;;;;;;25.98;48.41;99812.25;1754037;80;20977;-71
2021/06/07 08:22:59;;;;;;;4.30;2.58;;;;;;;25.58;49.36;99816.64;1756977;80;20906;-72
2021/06/07 08:25:32;;;;;;;4.17;2.95;;;;;;;25.28;51.43;99818.20;1747969;80;20859;-72
2021/06/07 08:28:01;;;;;;;3.92;2.80;;;;;;;25.15;51.79;99817.05;1757078;80;21064;-71
2021/06/07 08:30:33;;;;;;;2.70;2.50;;;;;;;25.01;50.95;99813.88;1762742;80;20836;-72
2021/06/07 08:33:06;;;;;;;2.90;2.67;;;;;;;24.86;52.04;99814.34;1755622;80;21081;-70
2021/06/07 08:35:35;;;;;;;2.83;2.62;;;;;;;24.74;52.72;99822.48;1766943;80;20926;-71
2021/06/07 08:38:05;;;;;;;4.17;3.12;;;;;;;24.66;51.50;99818.56;1721668;81;21007;-69
2021/06/07 08:40:37;;;;;;;2.65;2.45;;;;;;;24.65;51.75;99816.91;1741635;80;21052;-70
2021/06/07 08:43:08;;;;;;;2.45;2.25;;;;;;;24.71;51.75;99815.69;1727882;80;20958;-71
2021/06/07 08:45:41;;;;;;;2.80;2.60;;;;;;;24.85;51.77;99812.69;1750743;80;21859;-70
2021/06/07 08:48:08;;;;;;;2.62;2.42;;;;;;;25.03;52.48;99809.19;1758778;80;20855;-69
2021/06/07 08:50:35;;;;;;;2.60;2.40;;;;;;;25.12;51.58;99805.42;1746472;80;20903;-70
2021/06/07 08:53:05;;;;;;;2.80;2.60;;;;;;;25.17;51.11;99807.03;1751286;80;21029;-71
2021/06/07 08:55:36;;;;;;;4.25;2.60;;;;;;;25.16;51.79;99809.38;1751502;78;20985;-70
2021/06/07 08:58:06;;;;;;;3.87;2.58;;;;;;;25.16;51.03;99806.70;1788837;78;20994;-70
2021/06/07 09:00:40;;;;;;;4.37;2.60;;;;;;;25.13;51.11;99819.57;1765741;79;21638;-68
2021/06/07 09:03:15;;;;;;;2.45;2.27;;;;;;;25.12;50.75;99805.42;1780990;78;21004;-68
2021/06/07 09:05:44;;;;;;;2.83;2.37;;;;;;;25.13;49.66;99819.57;1781251;79;20962;-70
2021/06/07 09:08:15;;;;;;;2.37;2.27;;;;;;;24.97;50.41;99817.91;1746007;81;21052;-71
2021/06/07 09:10:50;;;;;;;2.60;2.40;;;;;;;24.97;51.57;99811.77;1736958;80;21110;-70
2021/06/07 09:13:23;;;;;;;2.58;2.40;;;;;;;25.04;50.74;99812.17;1788738;79;20867;-70
2021/06/07 09:15:56;;;;;;;2.72;2.33;;;;;;;24.90;51.01;99811.13;1781697;79;21438;-70
2021/06/07 09:18:37;;;;;;;3.12;2.08;;;;;;;24.90;51.18;99810.30;1772148;81;20939;-69
2021/06/07 09:21:18;;;;;;;2.60;2.40;;;;;;;24.88;49.43;99801.67;1782232;79;21524;-70
2021/06/07 09:24:05;;;;;;;2.25;2.15;;;;;;;24.70;50.13;99809.20;1766434;79;21139;-69
2021/06/07 09:26:38;;;;;;;2.47;2.25;;;;;;;24.51;50.61;99807.38;1776824;79;21006;-70
2021/06/07 09:29:14;;;;;;;3.42;2.60;;;;;;;24.31;50.59;99809.42;1792746;79;20904;-70
2021/06/07 09:31:45;;;;;;;2.55;2.35;;;;;;;24.08;51.52;99806.23;1737246;80;20958;-70
2021/06/07 09:34:38;;;;;;;2.80;2.60;;;;;;;23.96;52.35;99791.73;1784130;78;20985;-71
2021/06/07 09:37:18;;;;;;;2.72;2.52;;;;;;;24.04;53.67;99784.98;1746841;80;21596;-70
2021/06/07 09:39:54;;;;;;;2.85;2.62;;;;;;;24.19;53.72;99783.20;1785952;79;21541;-70
2021/06/07 09:42:28;;;;;;;2.80;2.60;;;;;;;24.28;53.13;99781.84;1794893;79;20963;-70
2021/06/07 09:44:55;;;;;;;2.70;2.50;;;;;;;24.25;53.65;99782.52;1780491;79;20966;-70
2021/06/07 09:47:27;;;;;;;2.98;2.33;;;;;;;24.18;53.01;99778.06;1767705;79;20978;-72
2021/06/07 09:50:04;;;;;;;2.40;2.20;;;;;;;24.14;52.79;99781.59;1804664;78;21108;-70
2021/06/07 09:52:47;;;;;;;2.70;2.50;;;;;;;24.19;52.39;99781.05;1732639;80;20897;-69
2021/06/07 09:55:21;;;;;;;2.35;2.15;;;;;;;24.26;51.66;99772.70;1792178;78;20931;-69
2021/06/07 09:57:53;;;;;;;3.12;2.30;;;;;;;24.33;52.00;99772.81;1735348;80;21434;-68
2021/06/07 10:00:42;;;;;;;2.02;1.80;;;;;;;24.40;51.22;99765.73;1762966;79;20954;-68
2021/06/07 10:03:39;;;;;;;2.10;2.00;;;;;;;24.35;49.43;99769.47;1741176;81;21079;-68
2021/06/07 10:06:36;;;;;;;3.08;2.30;;;;;;;24.22;51.33;99772.20;1749782;81;20974;-68
2021/06/07 10:09:18;;;;;;;4.50;1.90;;;;;;;24.25;51.63;99775.05;1744393;82;20935;-68
2021/06/07 10:11:55;;;;;;;2.50;2.30;;;;;;;24.37;51.12;99773.61;1744651;82;21505;-69
2021/06/07 10:14:29;;;;;;;2.25;2.15;;;;;;;24.45;49.82;99778.83;1743481;82;20959;-68
2021/06/07 10:17:05;;;;;;;3.65;2.47;;;;;;;24.46;50.05;99771.66;1743975;82;21085;-68
2021/06/07 10:22:11;;;;;;;2.00;1.90;;;;;;;24.37;49.48;99770.95;1725321;82;21384;-67
2021/06/07 10:24:39;;;;;;;2.95;2.20;;;;;;;24.11;50.26;99777.95;1744832;82;20918;-68
2021/06/07 10:27:10;;;;;;;2.80;2.10;;;;;;;23.76;50.55;99776.73;1744870;82;20865;-68
2021/06/07 10:29:43;;;;;;;2.60;2.40;;;;;;;23.40;51.85;99782.25;1745010;82;21478;-68
2021/06/07 10:32:15;;;;;;;2.60;2.40;;;;;;;23.05;53.02;99787.58;1718568;82;21429;-68
2021/06/07 10:34:51;;;;;;;2.50;1.98;;;;;;;22.69;54.15;99788.00;1744975;82;20982;-67
2021/06/07 10:37:29;;;;;;;2.27;2.08;;;;;;;22.42;56.40;99789.19;1744575;82;20946;-68
2021/06/07 10:40:25;;;;;;;4.28;2.33;;;;;;;22.23;58.38;99777.12;1743800;82;21010;-69
2021/06/07 10:43:07;;;;;;;2.37;2.17;;;;;;;22.15;60.06;99768.34;1744734;82;21214;-69
2021/06/07 10:45:41;;;;;;;2.40;2.30;;;;;;;22.15;59.93;99771.00;1720512;82;20947;-68
2021/06/07 10:48:11;;;;;;;2.47;2.35;;;;;;;22.16;58.79;99773.98;1745173;82;20899;-68
2021/06/07 10:50:45;;;;;;;3.95;2.33;;;;;;;22.18;58.96;99769.34;1744791;82;20895;-68
2021/06/07 10:53:27;;;;;;;4.37;2.60;;;;;;;22.24;57.88;99766.02;1744818;82;21029;-70
2021/06/07 10:56:47;;;;;;;2.87;2.02;;;;;;;22.35;57.77;99761.70;1731089;82;21175;-70
2021/06/07 10:59:15;;;;;;;2.20;2.10;;;;;;;22.49;58.31;99764.14;1724519;80;21015;-68
2021/06/07 11:01:59;;;;;;;2.08;1.95;;;;;;;22.75;57.82;99763.93;1786112;78;20949;-70
2021/06/07 11:04:35;;;;;;;2.30;2.10;;;;;;;22.95;56.76;99754.58;1802054;78;20851;-70
2021/06/07 11:07:18;;;;;;;3.20;2.25;;;;;;;23.16;56.52;99749.52;1824763;78;20934;-70
2021/06/07 11:10:25;;;;;;;2.72;2.20;;;;;;;23.26;54.63;99752.77;1791445;80;21459;-68
2021/06/07 11:12:56;;;;;;;2.47;1.82;;;;;;;23.27;54.10;99745.12;1765397;80;21014;-69
2021/06/07 11:15:40;;;;;;;2.80;2.60;;;;;;;23.30;53.40;99737.30;1766981;78;21037;-69
2021/06/07 11:18:27;;;;;;;4.17;2.92;;;;;;;23.35;51.59;99734.13;1764452;78;20962;-69
2021/06/07 11:21:07;;;;;;;5.70;2.37;;;;;;;23.35;51.92;99729.64;1785579;78;21485;-70
2021/06/07 11:23:41;;;;;;;2.00;1.90;;;;;;;23.38;51.89;99727.95;1799080;78;20993;-70
2021/06/07 11:26:14;;;;;;;2.47;2.15;;;;;;;23.39;52.34;99724.30;1800175;78;20879;-70
2021/06/07 11:29:05;;;;;;;2.12;1.87;;;;;;;23.39;52.16;99724.80;1794220;78;21516;-68
2021/06/07 11:31:38;;;;;;;2.15;1.95;;;;;;;23.42;51.65;99717.30;1801638;78;21060;-69
2021/06/07 11:34:11;;;;;;;2.45;2.20;;;;;;;23.53;52.41;99718.77;1803454;78;20943;-70
2021/06/07 11:36:59;;;;;;;3.17;1.85;;;;;;;23.69;51.40;99727.93;1779763;79;21002;-69
2021/06/07 11:39:47;;;;;;;2.30;2.00;;;;;;;23.84;50.76;99712.03;1770098;80;20923;-69
2021/06/07 11:42:21;;;;;;;3.90;1.80;;;;;;;24.08;51.46;99718.45;1767760;79;20955;-69
2021/06/07 11:44:57;;;;;;;1.95;1.85;;;;;;;24.29;49.81;99712.48;1758974;80;21464;-67
2021/06/07 11:47:49;;;;;;;1.70;1.60;;;;;;;24.44;49.40;99707.14;1799488;79;20966;-67
2021/06/07 11:50:22;;;;;;;3.40;1.98;;;;;;;24.51;49.27;99705.41;1765319;81;21107;-72
2021/06/07 11:52:52;;;;;;;2.65;1.60;;;;;;;24.54;48.44;99709.03;1808447;78;20872;-69
2021/06/07 11:55:32;;;;;;;1.72;1.62;;;;;;;24.58;48.05;99699.16;1809079;79;20879;-75
2021/06/07 11:58:29;;;;;;;1.75;1.47;;;;;;;24.70;47.81;99700.03;1812720;79;21591;-71
2021/06/07 12:01:05;;;;;;;2.10;2.00;;;;;;;24.77;47.76;99700.45;1811334;77;20876;-68
2021/06/07 12:03:32;;;;;;;5.65;2.12;;;;;;;24.71;49.51;99711.01;1785719;79;21192;-69
2021/06/07 12:06:03;;;;;;;2.50;1.80;;;;;;;24.39;51.30;99707.69;1775913;79;21636;-67
2021/06/07 12:08:37;;;;;;;4.53;2.40;;;;;;;24.00;52.39;99711.05;1811687;77;20982;-72
2021/06/07 12:11:08;;;;;;;4.35;1.95;;;;;;;23.52;55.20;99721.06;1783525;79;20939;-67
2021/06/07 12:13:45;;;;;;;5.83;2.50;;;;;;;23.08;58.36;99715.52;1808577;77;20927;-64
2021/06/07 12:16:16;;;;;;;2.85;2.40;;;;;;;22.56;62.26;99735.44;1831001;77;20971;-65
2021/06/07 12:18:51;;;;;;;2.30;2.20;;;;;;;22.03;65.38;99735.20;1807447;77;20986;-64
2021/06/07 12:21:30;;;;;;;2.42;2.22;;;;;;;21.59;65.16;99727.04;1808084;77;21068;-65
2021/06/07 12:24:06;;;;;;;2.50;2.30;;;;;;;21.18;66.97;99742.52;1809924;77;21037;-66
2021/06/07 12:29:36;;;;;;;2.45;2.25;;;;;;;20.56;68.14;99737.45;1811875;77;20981;-66
2021/06/07 12:32:23;;;;;;;4.00;2.42;;;;;;;20.56;68.14;99737.45;1776727;77;20982;-65
2021/06/07 12:35:10;;;;;;;3.27;2.72;;;;;;;20.49;67.94;99737.73;1794276;78;20926;-65
2021/06/07 12:37:56;;;;;;;3.58;2.83;;;;;;;20.47;68.01;99738.39;1780738;80;21009;-66
2021/06/07 12:40:45;;;;;;;3.20;2.50;;;;;;;20.44;65.40;99732.58;1776552;80;21057;-64
2021/06/07 12:43:19;;;;;;;3.67;2.30;;;;;;;20.40;63.77;99737.34;1788085;77;21306;-65
2021/06/07 12:46:03;;;;;;;2.77;2.25;;;;;;;20.36;64.30;99733.84;1811479;78;20899;-66
2021/06/07 12:48:42;;;;;;;2.42;1.82;;;;;;;20.34;64.05;99736.64;1809728;78;20970;-65
2021/06/07 12:51:15;;;;;;;2.17;1.98;;;;;;;20.34;63.60;99739.78;1785764;79;21643;-65
2021/06/07 12:53:49;;;;;;;1.90;1.80;;;;;;;20.34;63.12;99739.29;1817569;77;20990;-67
2021/06/07 12:56:24;;;;;;;1.50;1.50;;;;;;;20.35;61.79;99742.27;1815451;77;21949;-66
2021/06/07 12:58:58;;;;;;;1.37;1.30;;;;;;;20.37;60.93;99742.95;1731304;79;21541;-66
2021/06/07 13:01:50;;;;;;;1.52;1.42;;;;;;;20.38;59.92;99749.09;1769441;78;20969;-66
2021/06/07 13:04:33;;;;;;;1.25;1.20;;;;;;;20.34;59.43;99747.71;1754301;79;21662;-67
2021/06/07 13:07:16;;;;;;;3.12;1.50;;;;;;;20.30;59.86;99744.05;1786536;79;20947;-68
2021/06/07 13:09:49;;;;;;;2.45;1.50;;;;;;;20.28;60.27;99749.98;1783979;79;21148;-72
2021/06/07 13:12:27;;;;;;;1.60;1.50;;;;;;;20.32;60.80;99750.52;1762052;79;20962;-71
2021/06/07 13:14:56;;;;;;;2.12;1.62;;;;;;;20.39;59.42;99753.41;1783248;78;20900;-70
2021/06/07 13:17:28;;;;;;;2.45;1.75;;;;;;;20.45;59.08;99751.43;1760680;78;20971;-68
2021/06/07 13:19:59;;;;;;;2.58;1.47;;;;;;;20.51;57.75;99750.81;1782611;78;21021;-74
2021/06/07 13:22:44;;;;;;;3.92;1.80;;;;;;;20.57;58.32;99749.69;1784825;79;21143;-66
2021/06/07 13:25:17;;;;;;;2.95;1.82;;;;;;;20.66;58.23;99743.13;1777098;79;21009;-66
2021/06/07 13:27:50;;;;;;;1.75;1.65;;;;;;;20.78;56.71;99742.70;1787068;79;20980;-67
2021/06/07 13:30:30;;;;;;;1.90;1.80;;;;;;;20.88;57.06;99735.45;1754702;79;20974;-67
2021/06/07 13:32:58;;;;;;;1.80;1.70;;;;;;;21.01;57.19;99735.50;1763212;80;20995;-65
2021/06/07 13:35:31;;;;;;;3.25;1.85;;;;;;;21.12;56.70;99728.10;1782024;78;20903;-66
2021/06/07 13:38:04;;;;;;;2.92;1.70;;;;;;;21.25;55.51;99726.33;1787589;78;20940;-67
2021/06/07 13:40:37;;;;;;;2.80;1.60;;;;;;;21.41;54.73;99729.02;1785094;78;21002;-67
2021/06/07 13:43:08;;;;;;;1.67;1.57;;;;;;;21.54;54.77;99721.43;1795067;78;21178;-69
2021/06/07 13:45:40;;;;;;;3.02;2.20;;;;;;;21.69;54.89;99725.56;1771467;79;21509;-67
2021/06/07 13:48:17;;;;;;;2.35;2.00;;;;;;;22.09;55.05;99721.27;1771085;78;21140;-68
2021/06/07 13:50:58;;;;;;;1.90;1.75;;;;;;;22.09;55.05;99721.27;1780200;79;20927;-66
2021/06/07 13:53:43;;;;;;;2.10;1.90;;;;;;;22.26;54.29;99716.28;1767630;80;21491;-71
2021/06/07 13:56:19;;;;;;;1.70;1.60;;;;;;;22.42;53.59;99702.97;1750500;80;21064;-68
2021/06/07 13:59:03;;;;;;;2.15;2.05;;;;;;;22.62;52.67;99702.09;1775156;79;20986;-66
2021/06/07 14:01:44;;;;;;;;;;;;;;;22.81;52.20;99700.87;1787052;77;21161;-67
2021/06/07 14:04:31;;;;;;;1.60;1.50;;;;;;;22.98;51.19;99697.64;1790930;77;20126;-67
2021/06/07 14:07:04;;;;;;;1.35;1.32;;;;;;;23.10;50.03;99693.11;1787381;79;21006;-67
2021/06/07 14:09:37;;;;;;;2.80;1.82;;;;;;;23.26;48.84;99691.66;1752885;79;21607;-64
2021/06/07 14:12:11;;;;;;;3.17;2.00;;;;;;;23.37;49.46;99686.45;1788664;79;20931;-66
2021/06/07 14:14:43;;;;;;;2.55;1.60;;;;;;;23.50;49.37;99685.86;1784644;79;21136;-69
2021/06/07 14:17:13;;;;;;;1.82;1.72;;;;;;;23.59;48.87;99683.51;1769852;79;21508;-66
2021/06/07 14:19:40;;;;;;;1.47;1.37;;;;;;;23.68;48.54;99702.34;1779193;79;21418;-65
2021/06/07 14:25:36;;;;;;;2.95;1.70;;;;;;;23.80;49.03;99704.09;1770570;81;21041;-69
2021/06/07 14:28:18;;;;;;;1.27;1.27;;;;;;;23.91;48.69;99703.67;1772544;81;20896;-67
2021/06/07 14:30:45;;;;;;;1.92;1.82;;;;;;;23.98;48.14;99690.48;1772929;81;20954;-68
2021/06/07 14:33:12;;;;;;;4.03;1.60;;;;;;;24.02;48.20;99685.09;1772812;81;20966;-69
2021/06/07 14:35:40;;;;;;;1.62;1.52;;;;;;;24.10;48.20;99683.69;1772534;81;20947;-67
2021/06/07 14:38:09;;;;;;;2.35;2.02;;;;;;;24.21;48.82;99694.72;1772951;81;20895;-66
2021/06/07 14:40:39;;;;;;;2.17;1.80;;;;;;;24.30;48.28;99691.51;1772617;81;21116;-71
2021/06/07 14:43:12;;;;;;;1.72;1.62;;;;;;;24.30;48.89;99693.34;1772503;81;20931;-68
2021/06/07 14:45:41;;;;;;;2.37;1.82;;;;;;;24.19;49.51;99694.08;1772856;81;21306;-68
2021/06/07 14:48:08;;;;;;;3.98;1.75;;;;;;;24.06;49.16;99700.52;1772604;81;20848;-69
2021/06/07 14:50:37;;;;;;;2.02;1.90;;;;;;;23.86;49.47;99694.07;1772092;80;21552;-69
2021/06/07 14:53:04;;;;;;;2.62;2.20;;;;;;;23.65;50.08;99702.70;1772485;81;21130;-67
2021/06/07 14:55:31;;;;;;;2.12;2.02;;;;;;;23.28;64.64;99709.58;1772730;81;20884;-65
2021/06/07 14:57:59;;;;;;;6.22;3.00;;;;;;;22.83;64.38;99736.03;1768061;80;20852;-69
2021/06/07 15:00:28;;;;;;;5.17;2.87;;;;;;;22.28;67.88;99748.78;1766540;81;21481;-66
2021/06/07 15:02:55;;;;;;;2.58;2.37;;;;;;;21.72;71.34;99744.28;1766623;81;20974;-66
2021/06/07 15:05:22;;;;;;;2.72;2.50;;;;;;;21.07;73.88;99749.42;1766601;81;21075;-69
2021/06/07 15:07:50;;;;;;;3.58;2.58;;;;;;;20.46;75.76;99745.16;1766548;81;20922;-67
2021/06/07 15:10:17;;;;;;;2.40;2.30;;;;;;;19.96;77.47;99734.73;1766573;81;20923;-71
2021/06/07 15:12:44;;;;;;;1.95;1.85;;;;;;;19.59;78.54;99730.92;1766497;81;21553;-67
2021/06/07 15:15:12;;;;;;;2.47;1.87;;;;;;;19.29;78.76;99736.05;1766599;81;20931;-69
2021/06/07 15:17:39;;;;;;;4.67;3.10;;;;;;;19.01;78.40;99727.83;1766971;81;21105;-70
2021/06/07 15:20:07;;;;;;;3.37;2.20;;;;;;;18.78;78.57;99725.25;1766557;81;20939;-71
2021/06/07 15:22:34;;;;;;;2.37;2.17;;;;;;;18.59;77.88;99718.20;1766687;81;20947;-71
2021/06/07 15:25:01;;;;;;;4.30;2.30;;;;;;;18.41;79.06;99726.03;1765204;81;21584;-71
2021/06/07 15:27:28;;;;;;;2.62;2.00;;;;;;;18.30;80.46;99730.17;1766914;81;21702;-69
2021/06/07 15:29:55;;;;;;;2.87;2.15;;;;;;;18.21;81.46;99735.81;1766602;81;21960;-69
2021/06/07 15:32:22;;;;;;;3.80;2.22;;;;;;;18.13;81.11;99746.22;1766841;81;20975;-70
2021/06/07 15:35:49;;;;;;;2.98;1.80;;;;;;;18.07;81.76;99749.41;1766484;81;20911;-70
2021/06/07 15:38:27;;;;;;;6.05;2.62;;;;;;;18.03;82.65;99745.39;1766774;81;20947;-70
2021/06/07 15:41:04;;;;;;;3.12;1.82;;;;;;;17.97;82.86;99738.91;1766653;81;20951;-70
2021/06/07 15:43:34;;;;;;;2.85;2.30;;;;;;;17.95;84.42;99735.58;1766359;81;21086;-71
2021/06/07 15:46:02;;;;;;;5.15;2.62;;;;;;;17.96;85.94;99735.09;1766533;81;21398;-69
2021/06/07 15:48:30;;;;;;;3.83;2.70;;;;;;;17.99;87.66;99735.62;1766783;81;21040;-68
2021/06/07 15:51:01;;;;;;;4.42;3.08;;;;;;;18.07;88.30;99741.51;1766633;81;21466;-68
2021/06/07 15:53:28;;;;;;;6.90;2.65;;;;;;;18.13;88.70;99744.90;1766888;81;20986;-68
2021/06/07 15:55:58;;;;;;;5.78;2.45;;;;;;;18.20;87.72;99742.53;1766509;81;21118;-68
2021/06/07 15:58:28;;;;;;;3.65;2.33;;;;;;;18.25;87.43;99738.50;1763919;78;21547;-67
2021/06/07 16:00:56;;;;;;;3.35;2.02;;;;;;;18.33;87.82;99732.53;1764254;81;20923;-67
2021/06/07 16:03:23;;;;;;;9.28;2.60;;;;;;;18.41;87.20;99726.52;1764328;81;20943;-67
2021/06/07 16:05:50;;;;;;;7.78;2.58;;;;;;;18.48;87.33;99726.29;1764228;80;20880;-67
2021/06/07 16:08:20;;;;;;;2.80;2.20;;;;;;;18.56;87.50;99726.41;1763885;80;21068;-68
2021/06/07 16:10:49;;;;;;;2.62;2.42;;;;;;;18.63;87.30;99728.84;1764094;81;21435;-68
2021/06/07 16:13:16;;;;;;;2.83;2.47;;;;;;;18.67;87.16;99720.16;1764181;80;21073;-68
2021/06/07 16:15:44;;;;;;;4.25;2.30;;;;;;;18.72;86.94;99724.02;1764165;81;20970;-67
2021/06/07 16:18:20;;;;;;;2.95;2.17;;;;;;;18.76;86.69;99723.25;1764218;80;20994;-67
2021/06/07 16:23:16;;;;;;;4.67;2.22;;;;;;;18.80;86.81;99717.50;1764304;80;20935;-68
2021/06/07 16:25:45;;;;;;;2.30;2.10;;;;;;;18.82;86.52;99716.04;1764324;80;21537;-67
2021/06/07 16:28:12;;;;;;;3.75;2.52;;;;;;;18.83;86.68;99719.02;1764324;80;20907;-67
2021/06/07 16:30:40;;;;;;;3.35;2.62;;;;;;;18.83;86.31;99716.38;1764354;80;20927;-68
2021/06/07 16:33:13;;;;;;;5.78;2.47;;;;;;;18.82;86.92;99718.67;1764454;81;20868;-68
2021/06/07 16:35:42;;;;;;;3.52;2.33;;;;;;;18.82;87.17;99715.55;1763481;80;20848;-67
2021/06/07 16:38:09;;;;;;;2.60;2.40;;;;;;;18.82;87.49;99710.27;1764895;81;20986;-68
2021/06/07 16:40:36;;;;;;;3.25;2.95;;;;;;;18.81;88.30;99724.93;1763919;80;21469;-68
2021/06/07 16:43:03;;;;;;;5.03;2.80;;;;;;;18.80;88.14;99725.91;1764463;80;21405;-67
2021/06/07 16:45:30;;;;;;;4.70;3.22;;;;;;;18.77;87.94;99720.47;1764524;81;21740;-67
2021/06/07 16:47:57;;;;;;;2.87;2.58;;;;;;;18.73;87.73;99709.86;1764071;81;20885;-68
2021/06/07 16:50:24;;;;;;;3.05;2.70;;;;;;;18.70;87.49;99709.31;1743076;81;21010;-68
2021/06/07 16:52:52;;;;;;;5.30;3.20;;;;;;;18.66;88.58;99718.00;1764319;80;20963;-67
2021/06/07 16:55:21;;;;;;;5.65;3.10;;;;;;;18.63;89.44;99712.53;1764292;80;21022;-67
2021/06/07 16:57:50;;;;;;;3.37;3.00;;;;;;;18.60;90.24;99714.62;1762364;80;21983;-68
2021/06/07 17:00:18;;;;;;;5.65;3.20;;;;;;;18.56;90.66;99715.86;1716000;81;20928;-68
2021/06/07 17:02:46;;;;;;;5.85;3.15;;;;;;;18.52;90.99;99712.67;1740437;81;20880;-68
2021/06/07 17:05:13;;;;;;;6.08;3.42;;;;;;;18.50;91.36;99705.88;1761570;81;21018;-67
2021/06/07 17:07:40;;;;;;;4.72;3.10;;;;;;;18.49;92.24;99708.17;1761741;81;20891;-67